sensor_id;sensor_type;location;lat;lon;timestamp;P1;durP1;ratioP1;P2;durP2;ratioP2
75112;SDS011;63692;47.338;8.520;2023-05-16T05:54:14;12.00;;;8.93;;
75112;SDS011;63692;47.338;8.520;2023-05-16T05:56:40;14.23;;;8.75;;
75112;SDS011;63692;47.338;8.520;2023-05-16T05:59:05;14.63;;;9.45;;
75112;SDS011;63692;47.338;8.520;2023-05-16T06:01:31;11.25;;;8.65;;
75112;SDS011;63692;47.338;8.520;2023-05-16T06:03:57;11.30;;;8.85;;
75112;SDS011;63692;47.338;8.520;2023-05-16T06:06:22;12.65;;;9.10;;
75112;SDS011;63692;47.338;8.520;2023-05-16T06:08:48;12.30;;;9.15;;
75112;SDS011;63692;47.338;8.520;2023-05-16T06:11:13;12.52;;;9.18;;
75112;SDS011;63692;47.338;8.520;2023-05-16T06:13:39;14.80;;;9.60;;
75112;SDS011;63692;47.338;8.520;2023-05-16T06:41:50;14.38;;;10.13;;
75112;SDS011;63692;47.338;8.520;2023-05-16T07:12:26;15.10;;;10.63;;
75112;SDS011;63692;47.338;8.520;2023-05-16T07:14:52;14.52;;;9.77;;
75112;SDS011;63692;47.338;8.520;2023-05-16T07:17:17;13.73;;;9.90;;
75112;SDS011;63692;47.338;8.520;2023-05-16T07:19:43;15.27;;;9.73;;
75112;SDS011;63692;47.338;8.520;2023-05-16T07:22:09;12.25;;;9.50;;
75112;SDS011;63692;47.338;8.520;2023-05-16T07:24:36;13.13;;;9.82;;
75112;SDS011;63692;47.338;8.520;2023-05-16T07:39:36;15.60;;;10.75;;
75112;SDS011;63692;47.338;8.520;2023-05-16T07:44:29;18.20;;;11.60;;
75112;SDS011;63692;47.338;8.520;2023-05-16T07:46:55;15.65;;;11.07;;
75112;SDS011;63692;47.338;8.520;2023-05-16T07:49:20;18.98;;;11.85;;
75112;SDS011;63692;47.338;8.520;2023-05-16T07:51:46;17.05;;;11.73;;
75112;SDS011;63692;47.338;8.520;2023-05-16T07:54:12;17.55;;;12.60;;
75112;SDS011;63692;47.338;8.520;2023-05-16T07:56:37;20.02;;;13.00;;
75112;SDS011;63692;47.338;8.520;2023-05-16T07:59:03;20.30;;;13.35;;
75112;SDS011;63692;47.338;8.520;2023-05-16T08:01:29;21.35;;;13.40;;
75112;SDS011;63692;47.338;8.520;2023-05-16T08:03:55;22.45;;;13.68;;
75112;SDS011;63692;47.338;8.520;2023-05-16T08:06:20;22.42;;;13.82;;
75112;SDS011;63692;47.338;8.520;2023-05-16T08:08:46;21.65;;;14.45;;
75112;SDS011;63692;47.338;8.520;2023-05-16T08:11:37;20.52;;;14.50;;
75112;SDS011;63692;47.338;8.520;2023-05-16T08:14:03;20.70;;;15.18;;
75112;SDS011;63692;47.338;8.520;2023-05-16T08:16:29;26.95;;;15.70;;
75112;SDS011;63692;47.338;8.520;2023-05-16T08:18:55;22.77;;;15.20;;
75112;SDS011;63692;47.338;8.520;2023-05-16T08:21:21;20.08;;;14.57;;
75112;SDS011;63692;47.338;8.520;2023-05-16T08:23:46;23.60;;;14.80;;
75112;SDS011;63692;47.338;8.520;2023-05-16T08:26:12;23.73;;;15.45;;
75112;SDS011;63692;47.338;8.520;2023-05-16T08:28:37;22.08;;;15.35;;
75112;SDS011;63692;47.338;8.520;2023-05-16T08:31:03;21.70;;;15.02;;
75112;SDS011;63692;47.338;8.520;2023-05-16T08:33:29;23.33;;;15.65;;
75112;SDS011;63692;47.338;8.520;2023-05-16T08:35:54;27.83;;;16.30;;
75112;SDS011;63692;47.338;8.520;2023-05-16T08:38:20;22.67;;;15.18;;
75112;SDS011;63692;47.338;8.520;2023-05-16T08:40:45;26.05;;;15.32;;
75112;SDS011;63692;47.338;8.520;2023-05-16T08:43:11;23.10;;;16.55;;
75112;SDS011;63692;47.338;8.520;2023-05-16T08:45:37;22.92;;;16.77;;
75112;SDS011;63692;47.338;8.520;2023-05-16T08:48:04;25.30;;;16.35;;
75112;SDS011;63692;47.338;8.520;2023-05-16T08:50:31;26.70;;;17.23;;
75112;SDS011;63692;47.338;8.520;2023-05-16T08:53:02;26.77;;;17.83;;
75112;SDS011;63692;47.338;8.520;2023-05-16T08:58:00;26.23;;;17.67;;
75112;SDS011;63692;47.338;8.520;2023-05-16T09:00:27;31.08;;;18.67;;
75112;SDS011;63692;47.338;8.520;2023-05-16T09:02:53;34.03;;;19.05;;
75112;SDS011;63692;47.338;8.520;2023-05-16T09:05:19;30.02;;;18.30;;
75112;SDS011;63692;47.338;8.520;2023-05-16T09:07:46;32.00;;;19.63;;
75112;SDS011;63692;47.338;8.520;2023-05-16T09:10:12;29.15;;;18.75;;
75112;SDS011;63692;47.338;8.520;2023-05-16T09:12:38;28.02;;;19.92;;
75112;SDS011;63692;47.338;8.520;2023-05-16T09:15:06;31.02;;;19.23;;
75112;SDS011;63692;47.338;8.520;2023-05-16T09:18:01;32.53;;;19.73;;
75112;SDS011;63692;47.338;8.520;2023-05-16T09:20:26;34.53;;;19.83;;
75112;SDS011;63692;47.338;8.520;2023-05-16T09:22:56;29.80;;;19.35;;
75112;SDS011;63692;47.338;8.520;2023-05-16T09:25:24;32.33;;;19.52;;
75112;SDS011;63692;47.338;8.520;2023-05-16T09:27:55;28.70;;;19.45;;
75112;SDS011;63692;47.338;8.520;2023-05-16T09:30:22;27.92;;;19.45;;
75112;SDS011;63692;47.338;8.520;2023-05-16T09:32:52;35.75;;;20.02;;
75112;SDS011;63692;47.338;8.520;2023-05-16T09:35:18;29.95;;;18.95;;
75112;SDS011;63692;47.338;8.520;2023-05-16T09:37:45;29.67;;;19.17;;
75112;SDS011;63692;47.338;8.520;2023-05-16T09:40:11;29.08;;;18.20;;
75112;SDS011;63692;47.338;8.520;2023-05-16T09:42:37;25.15;;;18.05;;
75112;SDS011;63692;47.338;8.520;2023-05-16T09:45:03;26.48;;;17.58;;
75112;SDS011;63692;47.338;8.520;2023-05-16T09:47:29;29.52;;;18.48;;
75112;SDS011;63692;47.338;8.520;2023-05-16T09:49:54;30.60;;;19.50;;
75112;SDS011;63692;47.338;8.520;2023-05-16T09:52:20;28.55;;;19.48;;
75112;SDS011;63692;47.338;8.520;2023-05-16T09:54:46;28.35;;;19.63;;
75112;SDS011;63692;47.338;8.520;2023-05-16T09:57:21;31.58;;;19.92;;
75112;SDS011;63692;47.338;8.520;2023-05-16T09:59:47;34.65;;;21.85;;
75112;SDS011;63692;47.338;8.520;2023-05-16T10:02:14;40.53;;;23.38;;
75112;SDS011;63692;47.338;8.520;2023-05-16T10:04:40;28.52;;;18.77;;
75112;SDS011;63692;47.338;8.520;2023-05-16T10:07:06;28.38;;;18.75;;
75112;SDS011;63692;47.338;8.520;2023-05-16T10:09:33;29.25;;;18.25;;
75112;SDS011;63692;47.338;8.520;2023-05-16T10:12:01;27.50;;;17.48;;
75112;SDS011;63692;47.338;8.520;2023-05-16T10:14:33;25.77;;;17.73;;
75112;SDS011;63692;47.338;8.520;2023-05-16T10:17:03;27.80;;;18.30;;
75112;SDS011;63692;47.338;8.520;2023-05-16T10:19:31;30.13;;;19.02;;
75112;SDS011;63692;47.338;8.520;2023-05-16T10:22:04;33.22;;;21.33;;
75112;SDS011;63692;47.338;8.520;2023-05-16T10:24:33;34.78;;;21.33;;
75112;SDS011;63692;47.338;8.520;2023-05-16T10:29:49;34.53;;;22.17;;
75112;SDS011;63692;47.338;8.520;2023-05-16T10:32:16;37.80;;;24.05;;
75112;SDS011;63692;47.338;8.520;2023-05-16T10:34:43;37.00;;;23.55;;
75112;SDS011;63692;47.338;8.520;2023-05-16T10:37:10;33.78;;;23.15;;
75112;SDS011;63692;47.338;8.520;2023-05-16T10:39:36;31.90;;;20.65;;
75112;SDS011;63692;47.338;8.520;2023-05-16T10:42:04;28.48;;;19.42;;
75112;SDS011;63692;47.338;8.520;2023-05-16T10:46:58;32.28;;;21.02;;
75112;SDS011;63692;47.338;8.520;2023-05-16T10:49:25;27.77;;;19.15;;
75112;SDS011;63692;47.338;8.520;2023-05-16T10:55:01;21.88;;;14.50;;
75112;SDS011;63692;47.338;8.520;2023-05-16T10:57:22;24.30;;;15.60;;
75112;SDS011;63692;47.338;8.520;2023-05-16T10:59:48;25.13;;;16.13;;
75112;SDS011;63692;47.338;8.520;2023-05-16T11:02:25;23.98;;;15.98;;
75112;SDS011;63692;47.338;8.520;2023-05-16T11:04:56;22.98;;;16.20;;
75112;SDS011;63692;47.338;8.520;2023-05-16T11:07:24;23.17;;;15.30;;
75112;SDS011;63692;47.338;8.520;2023-05-16T11:12:35;22.08;;;13.65;;
75112;SDS011;63692;47.338;8.520;2023-05-16T11:15:01;21.17;;;13.20;;
75112;SDS011;63692;47.338;8.520;2023-05-16T11:17:45;16.73;;;11.23;;
75112;SDS011;63692;47.338;8.520;2023-05-16T11:20:29;17.85;;;11.95;;
75112;SDS011;63692;47.338;8.520;2023-05-16T11:25:43;19.67;;;12.82;;
75112;SDS011;63692;47.338;8.520;2023-05-16T11:28:11;19.88;;;13.18;;
75112;SDS011;63692;47.338;8.520;2023-05-16T11:30:57;20.88;;;14.18;;
75112;SDS011;63692;47.338;8.520;2023-05-16T11:33:23;21.42;;;14.82;;
75112;SDS011;63692;47.338;8.520;2023-05-16T11:36:02;19.25;;;13.55;;
75112;SDS011;63692;47.338;8.520;2023-05-16T11:38:32;19.77;;;14.43;;
75112;SDS011;63692;47.338;8.520;2023-05-16T11:41:05;20.63;;;14.68;;
75112;SDS011;63692;47.338;8.520;2023-05-16T11:43:36;20.77;;;14.50;;
75112;SDS011;63692;47.338;8.520;2023-05-16T12:18:56;23.17;;;14.88;;
75112;SDS011;63692;47.338;8.520;2023-05-16T12:21:21;24.20;;;14.63;;
75112;SDS011;63692;47.338;8.520;2023-05-16T12:43:34;19.27;;;13.25;;
75112;SDS011;63692;47.338;8.520;2023-05-16T12:45:59;22.95;;;13.38;;
75112;SDS011;63692;47.338;8.520;2023-05-16T12:48:31;19.90;;;13.73;;
75112;SDS011;63692;47.338;8.520;2023-05-16T12:53:44;20.95;;;13.63;;
75112;SDS011;63692;47.338;8.520;2023-05-16T12:56:13;20.53;;;13.57;;
75112;SDS011;63692;47.338;8.520;2023-05-16T12:58:40;17.60;;;13.20;;
75112;SDS011;63692;47.338;8.520;2023-05-16T13:01:06;17.38;;;11.80;;
75112;SDS011;63692;47.338;8.520;2023-05-16T13:03:33;16.15;;;11.60;;
75112;SDS011;63692;47.338;8.520;2023-05-16T13:05:59;18.17;;;12.77;;
75112;SDS011;63692;47.338;8.520;2023-05-16T13:08:25;18.02;;;12.02;;
75112;SDS011;63692;47.338;8.520;2023-05-16T14:53:54;12.63;;;7.28;;
75112;SDS011;63692;47.338;8.520;2023-05-16T14:56:20;11.75;;;7.32;;
75112;SDS011;63692;47.338;8.520;2023-05-16T15:03:41;12.75;;;7.50;;
75112;SDS011;63692;47.338;8.520;2023-05-16T15:20:54;11.50;;;5.60;;
75112;SDS011;63692;47.338;8.520;2023-05-16T15:23:20;7.47;;;5.38;;
75112;SDS011;63692;47.338;8.520;2023-05-16T15:25:45;7.28;;;5.05;;
75112;SDS011;63692;47.338;8.520;2023-05-16T15:35:38;7.95;;;5.22;;
75112;SDS011;63692;47.338;8.520;2023-05-16T16:08:07;11.05;;;6.88;;
75112;SDS011;63692;47.338;8.520;2023-05-16T16:32:39;8.40;;;4.30;;
75112;SDS011;63692;47.338;8.520;2023-05-16T16:35:05;6.50;;;3.90;;
75112;SDS011;63692;47.338;8.520;2023-05-16T16:39:58;8.25;;;4.88;;
75112;SDS011;63692;47.338;8.520;2023-05-16T16:42:24;7.47;;;5.22;;
75112;SDS011;63692;47.338;8.520;2023-05-16T16:44:51;8.27;;;5.53;;
75112;SDS011;63692;47.338;8.520;2023-05-16T16:47:17;8.60;;;5.57;;
75112;SDS011;63692;47.338;8.520;2023-05-16T16:52:10;8.65;;;5.10;;
75112;SDS011;63692;47.338;8.520;2023-05-16T16:57:03;6.40;;;4.03;;
75112;SDS011;63692;47.338;8.520;2023-05-16T16:59:29;6.00;;;3.78;;
75112;SDS011;63692;47.338;8.520;2023-05-16T17:01:54;7.13;;;3.88;;
75112;SDS011;63692;47.338;8.520;2023-05-16T17:04:20;5.68;;;3.60;;
75112;SDS011;63692;47.338;8.520;2023-05-16T17:06:46;5.53;;;3.00;;
75112;SDS011;63692;47.338;8.520;2023-05-16T17:09:11;7.97;;;3.25;;
75112;SDS011;63692;47.338;8.520;2023-05-16T17:11:41;4.25;;;2.75;;
75112;SDS011;63692;47.338;8.520;2023-05-16T17:14:08;4.03;;;2.45;;
75112;SDS011;63692;47.338;8.520;2023-05-16T17:16:38;5.47;;;2.45;;
75112;SDS011;63692;47.338;8.520;2023-05-16T17:19:05;3.30;;;2.13;;
75112;SDS011;63692;47.338;8.520;2023-05-16T17:24:01;4.90;;;2.05;;
75112;SDS011;63692;47.338;8.520;2023-05-16T17:26:27;5.63;;;2.67;;
75112;SDS011;63692;47.338;8.520;2023-05-16T17:29:00;5.30;;;2.63;;
75112;SDS011;63692;47.338;8.520;2023-05-16T17:31:28;6.40;;;2.70;;
75112;SDS011;63692;47.338;8.520;2023-05-16T17:38:58;5.13;;;2.60;;
75112;SDS011;63692;47.338;8.520;2023-05-16T17:41:24;5.38;;;2.88;;
75112;SDS011;63692;47.338;8.520;2023-05-16T17:43:57;4.45;;;2.67;;
75112;SDS011;63692;47.338;8.520;2023-05-16T17:48:57;6.35;;;3.03;;
75112;SDS011;63692;47.338;8.520;2023-05-16T18:01:30;3.72;;;2.20;;
75112;SDS011;63692;47.338;8.520;2023-05-16T18:06:32;5.65;;;2.50;;
75112;SDS011;63692;47.338;8.520;2023-05-16T18:09:08;3.65;;;2.20;;
75112;SDS011;63692;47.338;8.520;2023-05-16T18:11:34;4.28;;;2.60;;
75112;SDS011;63692;47.338;8.520;2023-05-16T18:14:01;4.40;;;2.55;;
75112;SDS011;63692;47.338;8.520;2023-05-16T18:21:23;4.05;;;2.50;;
75112;SDS011;63692;47.338;8.520;2023-05-16T18:23:49;4.90;;;2.50;;
75112;SDS011;63692;47.338;8.520;2023-05-16T18:26:18;3.75;;;2.50;;
75112;SDS011;63692;47.338;8.520;2023-05-16T18:28:44;5.38;;;2.28;;
75112;SDS011;63692;47.338;8.520;2023-05-16T18:31:10;3.80;;;2.47;;
75112;SDS011;63692;47.338;8.520;2023-05-16T18:33:36;4.25;;;2.53;;
75112;SDS011;63692;47.338;8.520;2023-05-16T18:36:04;5.25;;;2.88;;
75112;SDS011;63692;47.338;8.520;2023-05-16T18:38:33;5.18;;;2.92;;
75112;SDS011;63692;47.338;8.520;2023-05-16T18:40:58;5.43;;;3.05;;
75112;SDS011;63692;47.338;8.520;2023-05-16T18:43:24;5.45;;;3.30;;
75112;SDS011;63692;47.338;8.520;2023-05-16T18:48:24;8.40;;;3.38;;
75112;SDS011;63692;47.338;8.520;2023-05-16T18:50:50;8.83;;;3.27;;
75112;SDS011;63692;47.338;8.520;2023-05-16T19:03:22;5.38;;;3.28;;
75112;SDS011;63692;47.338;8.520;2023-05-16T19:05:47;5.55;;;2.90;;
75112;SDS011;63692;47.338;8.520;2023-05-16T19:08:13;6.38;;;3.40;;
75112;SDS011;63692;47.338;8.520;2023-05-16T19:10:38;6.28;;;3.35;;
75112;SDS011;63692;47.338;8.520;2023-05-16T19:13:05;5.97;;;3.10;;
75112;SDS011;63692;47.338;8.520;2023-05-16T19:15:35;7.18;;;3.50;;
75112;SDS011;63692;47.338;8.520;2023-05-16T19:18:02;5.88;;;3.15;;
75112;SDS011;63692;47.338;8.520;2023-05-16T19:20:28;5.28;;;3.20;;
75112;SDS011;63692;47.338;8.520;2023-05-16T19:22:55;8.02;;;3.42;;
75112;SDS011;63692;47.338;8.520;2023-05-16T19:25:20;6.03;;;3.17;;
75112;SDS011;63692;47.338;8.520;2023-05-16T19:30:16;7.55;;;3.50;;
75112;SDS011;63692;47.338;8.520;2023-05-16T19:35:09;6.60;;;3.78;;
75112;SDS011;63692;47.338;8.520;2023-05-16T19:37:35;7.18;;;3.42;;
75112;SDS011;63692;47.338;8.520;2023-05-16T19:40:02;9.23;;;3.25;;
75112;SDS011;63692;47.338;8.520;2023-05-16T19:42:47;7.38;;;3.38;;
75112;SDS011;63692;47.338;8.520;2023-05-16T19:45:13;8.70;;;3.80;;
75112;SDS011;63692;47.338;8.520;2023-05-16T19:47:38;6.43;;;3.03;;
75112;SDS011;63692;47.338;8.520;2023-05-16T19:50:04;8.30;;;3.45;;
75112;SDS011;63692;47.338;8.520;2023-05-16T19:54:58;7.63;;;3.60;;
75112;SDS011;63692;47.338;8.520;2023-05-16T19:57:23;8.43;;;3.10;;
75112;SDS011;63692;47.338;8.520;2023-05-16T19:59:49;6.95;;;3.28;;
75112;SDS011;63692;47.338;8.520;2023-05-16T20:05:02;7.25;;;3.30;;
75112;SDS011;63692;47.338;8.520;2023-05-16T20:07:28;9.82;;;3.60;;
75112;SDS011;63692;47.338;8.520;2023-05-16T20:09:54;9.02;;;3.40;;
75112;SDS011;63692;47.338;8.520;2023-05-16T20:12:19;7.75;;;3.42;;
75112;SDS011;63692;47.338;8.520;2023-05-16T20:14:45;8.15;;;3.25;;
75112;SDS011;63692;47.338;8.520;2023-05-16T20:17:10;8.75;;;3.00;;
75112;SDS011;63692;47.338;8.520;2023-05-16T20:19:41;8.30;;;2.92;;
75112;SDS011;63692;47.338;8.520;2023-05-16T20:24:44;6.05;;;2.80;;
75112;SDS011;63692;47.338;8.520;2023-05-16T20:30:22;9.15;;;3.13;;
75112;SDS011;63692;47.338;8.520;2023-05-16T20:33:12;9.07;;;2.85;;
75112;SDS011;63692;47.338;8.520;2023-05-16T20:39:27;5.20;;;2.58;;
75112;SDS011;63692;47.338;8.520;2023-05-16T20:46:09;9.00;;;2.80;;
75112;SDS011;63692;47.338;8.520;2023-05-16T20:48:52;10.85;;;3.30;;
75112;SDS011;63692;47.338;8.520;2023-05-16T20:55:07;8.05;;;3.08;;
75112;SDS011;63692;47.338;8.520;2023-05-16T20:57:35;5.57;;;2.67;;
75112;SDS011;63692;47.338;8.520;2023-05-16T21:00:09;6.40;;;2.85;;
